Time;durP1;ratioP1;P1;durP2;ratioP2;P2;SDS_P1;SDS_P2;PMS_P1;PMS_P2;Temp;Humidity;BMP_temperature;BMP_pressure;BME280_temperature;BME280_humidity;BME280_pressure;Samples;Min_cycle;Max_cycle;Signal;HPM_P1;HPM_P2
2021/10/31 10:45:39;;;;;;;5.35;4.45;;;13.50;99.90;;;;;;5090928;27;20959;-74
2021/10/31 10:48:05;;;;;;;4.45;4.15;;;13.50;99.90;;;;;;5090796;28;20168;-75
2021/10/31 10:50:38;;;;;;;6.20;4.47;;;13.60;99.90;;;;;;5090813;28;20259;-75
2021/10/31 10:53:20;;;;;;;4.82;3.97;;;13.60;99.90;;;;;;5090804;28;20198;-75
2021/10/31 10:55:46;;;;;;;4.30;4.10;;;13.60;99.90;;;;;;5090831;28;20183;-75
2021/10/31 10:58:16;;;;;;;4.47;4.18;;;13.60;99.90;;;;;;5090608;28;20213;-75
2021/10/31 11:00:46;;;;;;;4.40;4.10;;;13.60;99.90;;;;;;5089387;28;20533;-75
2021/10/31 11:03:18;;;;;;;4.70;4.20;;;13.70;99.90;;;;;;5090568;28;20164;-75
2021/10/31 11:05:49;;;;;;;4.18;3.78;;;13.90;99.90;;;;;;5090559;28;20656;-75
2021/10/31 11:08:24;;;;;;;4.35;3.75;;;13.80;99.90;;;;;;5090559;28;20629;-75
2021/10/31 11:11:10;;;;;;;4.22;3.97;;;13.80;99.90;;;;;;5089072;28;20636;-75
2021/10/31 11:13:50;;;;;;;3.65;3.42;;;13.80;99.90;;;;;;5089147;28;20179;-75
2021/10/31 11:16:20;;;;;;;4.05;3.85;;;13.80;99.90;;;;;;5089053;28;20668;-75
2021/10/31 11:18:45;;;;;;;4.13;3.80;;;13.80;99.90;;;;;;5088838;28;20176;-75
2021/10/31 11:21:11;;;;;;;3.25;3.15;;;13.90;99.90;;;;;;5088958;28;20180;-75
2021/10/31 11:23:38;;;;;;;4.72;3.90;;;13.90;99.90;;;;;;5090116;28;20191;-75
2021/10/31 11:26:13;;;;;;;3.45;3.20;;;14.00;99.90;;;;;;5089038;28;20259;-75
2021/10/31 11:28:39;;;;;;;4.63;3.10;;;14.00;99.90;;;;;;5090078;28;20171;-75
2021/10/31 11:31:05;;;;;;;3.00;2.90;;;14.10;99.90;;;;;;5090260;28;20159;-75
2021/10/31 11:33:31;;;;;;;3.42;3.25;;;14.10;99.90;;;;;;5090063;28;20724;-75
2021/10/31 11:35:58;;;;;;;2.80;2.70;;;14.10;99.90;;;;;;5089952;28;20199;-75
2021/10/31 11:38:24;;;;;;;3.40;3.08;;;14.30;99.90;;;;;;5088577;28;20199;-75
2021/10/31 11:41:10;;;;;;;3.25;2.95;;;14.40;99.90;;;;;;5088651;28;20532;-75
2021/10/31 11:43:50;;;;;;;2.88;2.60;;;14.40;99.90;;;;;;5089635;28;20216;-75
2021/10/31 11:46:16;;;;;;;7.28;3.35;;;14.50;99.90;;;;;;5089714;28;20164;-75
2021/10/31 11:48:59;;;;;;;3.13;2.92;;;14.50;99.90;;;;;;5089735;28;20179;-75
2021/10/31 11:51:43;;;;;;;3.45;3.25;;;14.50;99.90;;;;;;5089555;28;20195;-75
2021/10/31 11:54:14;;;;;;;2.95;2.78;;;14.60;99.90;;;;;;5089651;28;20518;-75
2021/10/31 11:56:43;;;;;;;3.10;3.00;;;14.60;99.90;;;;;;5077592;28;20214;-75
2021/10/31 11:59:16;;;;;;;3.58;2.92;;;14.60;99.90;;;;;;5076072;28;20203;-75
2021/10/31 12:01:45;;;;;;;2.92;2.83;;;14.50;99.90;;;;;;5075977;28;20203;-75
2021/10/31 12:04:31;;;;;;;2.65;2.45;;;14.50;99.90;;;;;;5075859;28;20657;-75
2021/10/31 12:07:39;;;;;;;2.70;2.50;;;14.50;99.90;;;;;;5075779;28;20176;-75
2021/10/31 12:10:30;;;;;;;2.60;2.50;;;14.40;99.90;;;;;;5075604;28;20699;-75
2021/10/31 12:13:20;;;;;;;2.67;2.58;;;14.30;99.90;;;;;;5075645;28;20241;-75
2021/10/31 12:16:12;;;;;;;3.10;2.80;;;14.30;99.90;;;;;;5075723;28;20322;-75
2021/10/31 12:18:44;;;;;;;3.10;3.00;;;14.30;99.90;;;;;;5075185;28;20176;-75
2021/10/31 12:21:25;;;;;;;2.80;2.60;;;14.40;99.90;;;;;;5074145;28;20675;-75
2021/10/31 12:23:55;;;;;;;2.70;2.58;;;14.40;99.90;;;;;;5074200;28;20672;-75
2021/10/31 12:26:27;;;;;;;3.50;2.90;;;14.50;99.90;;;;;;5074245;28;20180;-75
2021/10/31 12:29:14;;;;;;;2.97;2.45;;;14.50;99.90;;;;;;5074366;28;20629;-75
2021/10/31 12:31:52;;;;;;;2.72;2.53;;;14.50;99.90;;;;;;5075164;28;20164;-75
2021/10/31 12:37:39;;;;;;;3.50;3.22;;;14.50;99.90;;;;;;5075317;28;20229;-75
2021/10/31 12:40:06;;;;;;;3.35;2.90;;;14.90;99.90;;;;;;5075134;28;20641;-75
2021/10/31 12:42:51;;;;;;;3.58;3.22;;;14.60;99.90;;;;;;5075037;28;20617;-75
2021/10/31 12:45:17;;;;;;;5.45;3.30;;;14.50;99.90;;;;;;5073539;28;20256;-75
2021/10/31 12:47:52;;;;;;;4.78;3.10;;;14.70;99.90;;;;;;5073701;28;20576;-75
2021/10/31 12:50:21;;;;;;;3.42;3.13;;;14.70;99.90;;;;;;5075012;28;20191;-75
2021/10/31 12:53:11;;;;;;;3.05;2.85;;;14.70;99.90;;;;;;5074903;28;20619;-75
2021/10/31 12:55:39;;;;;;;3.20;3.00;;;14.70;99.90;;;;;;5074897;28;20718;-75
2021/10/31 12:58:07;;;;;;;3.30;3.03;;;14.80;99.90;;;;;;5073488;28;20226;-75
2021/10/31 13:00:36;;;;;;;3.47;3.03;;;14.70;99.90;;;;;;5073367;28;20180;-75
2021/10/31 13:03:03;;;;;;;3.10;2.90;;;14.80;99.90;;;;;;5074628;28;20180;-75
2021/10/31 13:05:33;;;;;;;4.68;3.10;;;14.80;99.90;;;;;;5073252;28;20290;-75
2021/10/31 13:08:00;;;;;;;2.63;2.47;;;14.90;99.90;;;;;;5073461;28;20165;-75
2021/10/31 13:10:30;;;;;;;2.80;2.53;;;14.90;99.90;;;;;;5074585;28;20233;-76
2021/10/31 13:13:05;;;;;;;3.70;3.10;;;14.90;99.90;;;;;;5074473;28;20187;-75
2021/10/31 13:15:36;;;;;;;3.15;2.80;;;14.90;99.90;;;;;;5073120;28;20183;-75
2021/10/31 13:18:11;;;;;;;5.55;3.00;;;15.00;99.90;;;;;;5074414;28;20175;-75
2021/10/31 13:20:36;;;;;;;9.52;3.65;;;15.00;99.90;;;;;;5074425;28;20561;-76
2021/10/31 13:23:06;;;;;;;2.78;2.58;;;15.00;99.90;;;;;;5074369;28;20180;-75
2021/10/31 13:26:06;;;;;;;2.88;2.67;;;15.10;99.90;;;;;;5074265;28;20297;-75
2021/10/31 13:28:46;;;;;;;3.00;2.90;;;15.10;99.90;;;;;;5072991;28;20183;-75
2021/10/31 13:31:22;;;;;;;4.57;3.08;;;15.10;99.90;;;;;;5074237;28;20704;-75
2021/10/31 13:33:49;;;;;;;2.13;2.03;;;15.00;99.90;;;;;;5074636;28;20172;-89
2021/10/31 13:36:24;;;;;;;2.20;2.03;;;15.20;99.90;;;;;;5073192;28;20172;-89
2021/10/31 13:38:57;;;;;;;2.60;2.50;;;15.20;99.90;;;;;;5074002;28;20187;-88
2021/10/31 13:41:27;;;;;;;2.47;2.38;;;15.30;99.90;;;;;;5074145;28;20169;-89
2021/10/31 13:43:54;;;;;;;1.88;1.77;;;15.40;99.90;;;;;;5073618;28;20249;-89
2021/10/31 13:46:21;;;;;;;2.28;2.08;;;15.40;99.90;;;;;;5074010;28;20168;-88
2021/10/31 13:48:54;;;;;;;2.30;1.95;;;15.40;99.90;;;;;;5073121;28;20229;-88
2021/10/31 13:51:21;;;;;;;2.13;1.92;;;15.30;99.90;;;;;;5057346;28;20255;-91
2021/10/31 13:53:46;;;;;;;5.57;2.00;;;15.30;99.90;;;;;;5073151;28;20589;-91
2021/10/31 13:56:12;;;;;;;1.45;1.45;;;15.30;99.90;;;;;;5073154;28;20172;-94
2021/10/31 13:58:38;;;;;;;1.80;1.70;;;15.30;99.90;;;;;;5074365;28;20175;-94
2021/10/31 14:01:04;;;;;;;2.15;2.05;;;15.40;99.90;;;;;;5074311;28;20230;-92
2021/10/31 14:03:39;;;;;;;1.63;1.63;;;15.20;99.90;;;;;;5073725;28;20172;-92
2021/10/31 14:06:09;;;;;;;1.50;1.50;;;15.30;99.90;;;;;;5073283;28;20629;-92
2021/10/31 14:08:41;;;;;;;1.75;1.65;;;15.30;99.90;;;;;;5073629;28;20168;-92
2021/10/31 14:11:15;;;;;;;1.65;1.55;;;15.30;99.90;;;;;;5073845;28;20565;-91
2021/10/31 14:13:42;;;;;;;1.40;1.40;;;15.80;99.90;;;;;;5073878;28;20614;-94
2021/10/31 14:16:24;;;;;;;1.23;1.23;;;15.40;99.90;;;;;;5073217;28;20176;-89
2021/10/31 14:18:50;;;;;;;1.60;1.60;;;15.50;99.90;;;;;;5073754;28;20183;-92
2021/10/31 14:21:17;;;;;;;1.15;1.10;;;15.30;99.90;;;;;;5075307;28;20195;-91
2021/10/31 14:23:43;;;;;;;1.50;1.40;;;15.30;99.90;;;;;;5073060;28;20196;-89
2021/10/31 14:26:12;;;;;;;1.20;1.20;;;15.20;99.90;;;;;;5072821;28;20179;-91
2021/10/31 14:28:43;;;;;;;3.80;1.70;;;15.30;99.90;;;;;;5073503;28;20172;-92
2021/10/31 14:31:11;;;;;;;1.60;1.50;;;15.10;99.90;;;;;;5074214;28;20241;-93
2021/10/31 14:33:38;;;;;;;2.05;1.40;;;15.10;99.90;;;;;;5074345;28;20176;-90
